Terminal Aerodrome Forecast
Issued by NWS Sioux Falls, SD

Home | Current Version | Previous Version | Graphics & Text | Print | Product List | Glossary On
Versions: 1 2 3 4 5 6 7 8 9 10 11 12 13 14 15 16 17 18 19 20 21
000
FTUS43 KFSD 251722
TAFSUX
TAF
KSUX 251722Z 2518/2618 03014KT P6SM OVC008
     FM252100 03010KT P6SM OVC010
     FM260500 02005KT 5SM BR OVC008
     FM261100 36005KT 4SM BR OVC003
     FM261500 36006KT P6SM OVC007=

USA.gov is the U.S. government's official web portal to all federal, state and local government web resources and services.